createdAt,value
2018-12-02T00:01:22.927Z,97912.00
2018-12-02T00:03:52.031Z,97905.00
2018-12-02T00:06:21.175Z,97898.00
2018-12-02T00:08:50.280Z,97901.00
2018-12-02T00:11:19.343Z,97896.00
2018-12-02T00:13:48.435Z,97889.00
2018-12-02T00:16:17.638Z,97880.00
2018-12-02T00:18:46.731Z,97881.00
2018-12-02T00:21:15.827Z,97871.00
2018-12-02T00:23:44.922Z,97873.00
2018-12-02T00:26:14.303Z,97873.00
2018-12-02T00:28:43.443Z,97863.00
2018-12-02T00:31:12.584Z,97857.00
2018-12-02T00:33:41.647Z,97850.00
2018-12-02T00:36:10.723Z,97849.00
2018-12-02T00:38:39.803Z,97844.00
2018-12-02T00:41:08.918Z,97841.00
2018-12-02T00:43:37.991Z,97826.00
2018-12-02T00:46:07.531Z,97829.00
2018-12-02T00:48:36.594Z,97820.00
2018-12-02T00:51:05.806Z,97821.00
2018-12-02T00:53:34.919Z,97822.00
2018-12-02T00:56:02.481Z,97820.00
2018-12-02T00:58:31.643Z,97827.00
2018-12-02T01:01:01.171Z,97816.00
2018-12-02T01:03:30.244Z,97815.00
2018-12-02T01:05:59.367Z,97820.00
2018-12-02T01:08:28.504Z,97819.00
2018-12-02T01:10:57.631Z,97814.00
2018-12-02T01:13:26.711Z,97803.00
2018-12-02T01:15:55.839Z,97810.00
2018-12-02T01:18:24.895Z,97813.00
2018-12-02T01:20:54.015Z,97813.00
2018-12-02T01:23:23.147Z,97801.00
2018-12-02T01:25:52.229Z,97794.00
2018-12-02T01:28:21.324Z,97794.00
2018-12-02T01:30:50.450Z,97797.00
2018-12-02T01:33:19.583Z,97793.00
2018-12-02T01:35:48.674Z,97781.00
2018-12-02T01:38:17.791Z,97788.00
2018-12-02T01:40:48.931Z,97786.00
2018-12-02T01:43:18.047Z,97785.00
2018-12-02T01:45:47.123Z,97780.00
2018-12-02T01:48:16.190Z,97780.00
2018-12-02T01:50:45.640Z,97777.00
2018-12-02T01:53:14.710Z,97765.00
2018-12-02T01:55:43.834Z,97758.00
2018-12-02T01:58:13.136Z,97761.00
2018-12-02T02:00:42.869Z,97754.00
2018-12-02T02:03:11.915Z,97743.00
2018-12-02T02:05:42.007Z,97745.00
2018-12-02T02:08:11.071Z,97741.00
2018-12-02T02:10:40.119Z,97735.00
2018-12-02T02:13:09.511Z,97729.00
2018-12-02T02:15:38.619Z,97732.00
2018-12-02T02:18:07.715Z,97722.00
2018-12-02T02:20:36.783Z,97719.00
2018-12-02T02:23:07.059Z,97708.00
2018-12-02T02:25:36.127Z,97706.00
2018-12-02T02:28:05.618Z,97700.00
2018-12-02T02:30:34.720Z,97703.00
2018-12-02T02:33:03.847Z,97710.00
2018-12-02T02:35:33.015Z,97695.00
2018-12-02T02:38:02.119Z,97688.00
2018-12-02T02:40:31.515Z,97685.00
2018-12-02T02:43:00.796Z,97682.00
2018-12-02T02:45:29.936Z,97676.00
2018-12-02T02:47:58.998Z,97676.00
2018-12-02T02:50:28.847Z,97674.00
2018-12-02T02:53:00.189Z,97663.00
2018-12-02T02:55:29.440Z,97659.00
2018-12-02T02:57:58.569Z,97658.00
2018-12-02T03:00:28.508Z,97651.00
2018-12-02T03:02:57.615Z,97650.00
2018-12-02T03:05:26.802Z,97647.00
2018-12-02T03:07:55.842Z,97644.00
2018-12-02T03:10:25.375Z,97646.00
2018-12-02T03:12:55.311Z,97633.00
2018-12-02T03:15:24.762Z,97633.00
2018-12-02T03:17:53.895Z,97637.00
2018-12-02T03:20:23.684Z,97632.00
2018-12-02T03:22:54.233Z,97625.00
2018-12-02T03:25:25.195Z,97620.00
2018-12-02T03:27:54.712Z,97614.00
2018-12-02T03:30:24.821Z,97612.00
2018-12-02T03:32:54.429Z,97608.00
2018-12-02T03:35:26.966Z,97612.00
2018-12-02T03:37:56.907Z,97608.00
2018-12-02T03:40:28.469Z,97612.00
2018-12-02T03:42:58.148Z,97603.00
2018-12-02T03:45:28.574Z,97594.00
2018-12-02T03:47:58.522Z,97600.00
2018-12-02T03:50:27.631Z,97592.00
2018-12-02T03:52:56.711Z,97593.00
2018-12-02T03:55:25.773Z,97593.00
2018-12-02T03:57:54.882Z,97605.00
2018-12-02T04:00:25.603Z,97598.00
2018-12-02T04:02:56.247Z,97597.00
2018-12-02T04:05:26.590Z,97592.00
2018-12-02T04:07:55.662Z,97587.00
2018-12-02T04:10:25.091Z,97576.00
2018-12-02T04:12:54.343Z,97583.00
2018-12-02T04:15:24.496Z,97570.00
2018-12-02T04:17:53.589Z,97565.00
2018-12-02T04:20:22.810Z,97568.00
2018-12-02T04:22:52.903Z,97563.00
2018-12-02T04:25:26.984Z,97548.00
2018-12-02T04:27:56.097Z,97554.00
2018-12-02T04:30:25.435Z,97554.00
2018-12-02T04:32:54.834Z,97553.00
2018-12-02T04:35:25.458Z,97540.00
2018-12-02T04:37:54.587Z,97544.00
2018-12-02T04:40:23.669Z,97545.00
2018-12-02T04:42:52.751Z,97539.00
2018-12-02T04:45:21.931Z,97538.00
2018-12-02T04:47:51.256Z,97537.00
2018-12-02T04:50:21.982Z,97532.00
2018-12-02T04:52:51.047Z,97530.00
2018-12-02T04:55:20.194Z,97521.00
2018-12-02T04:57:49.256Z,97524.00
2018-12-02T05:00:23.043Z,97522.00
2018-12-02T05:02:53.263Z,97524.00
2018-12-02T05:05:24.835Z,97519.00
2018-12-02T05:07:54.554Z,97504.00
2018-12-02T05:10:24.247Z,97508.00
2018-12-02T05:12:53.336Z,97512.00
2018-12-02T05:15:23.059Z,97509.00
2018-12-02T05:17:52.562Z,97507.00
2018-12-02T05:20:22.621Z,97508.00
2018-12-02T05:22:51.751Z,97490.00
2018-12-02T05:25:20.861Z,97489.00
2018-12-02T05:27:50.785Z,97491.00
2018-12-02T05:30:21.507Z,97489.00
2018-12-02T05:32:51.867Z,97493.00
2018-12-02T05:35:20.958Z,97474.00
2018-12-02T05:37:50.151Z,97477.00
2018-12-02T05:40:21.939Z,97477.00
2018-12-02T05:42:52.026Z,97476.00
2018-12-02T05:45:21.860Z,97466.00
2018-12-02T05:47:51.539Z,97466.00
2018-12-02T05:50:24.070Z,97463.00
2018-12-02T05:52:57.646Z,97463.00
2018-12-02T05:55:32.774Z,97463.00
2018-12-02T05:58:01.867Z,97464.00
2018-12-02T06:00:30.966Z,97458.00
2018-12-02T06:03:00.055Z,97457.00
2018-12-02T06:05:29.388Z,97451.00
2018-12-02T06:07:58.434Z,97453.00
2018-12-02T06:10:27.547Z,97458.00
2018-12-02T06:12:56.747Z,97445.00
2018-12-02T06:15:25.795Z,97451.00
2018-12-02T06:17:54.852Z,97455.00
2018-12-02T06:20:25.572Z,97459.00
2018-12-02T06:22:56.095Z,97454.00
2018-12-02T06:25:25.522Z,97449.00
2018-12-02T06:27:54.665Z,97441.00
2018-12-02T06:30:27.991Z,97450.00
2018-12-02T06:33:03.095Z,97434.00
2018-12-02T06:35:32.187Z,97437.00
2018-12-02T06:38:03.651Z,97430.00
2018-12-02T06:40:32.787Z,97434.00
2018-12-02T06:43:01.887Z,97442.00
2018-12-02T06:45:31.062Z,97439.00
2018-12-02T06:48:00.179Z,97436.00
2018-12-02T06:50:29.529Z,97428.00
2018-12-02T06:52:58.839Z,97438.00
2018-12-02T06:55:45.138Z,97438.00
2018-12-02T06:58:27.922Z,97436.00
2018-12-02T07:01:17.796Z,97439.00
2018-12-02T07:04:10.423Z,97434.00
2018-12-02T07:06:39.855Z,97441.00
2018-12-02T07:09:09.427Z,97440.00
2018-12-02T07:11:38.612Z,97441.00
2018-12-02T07:14:07.731Z,97430.00
2018-12-02T07:16:36.871Z,97438.00
2018-12-02T07:19:12.650Z,97412.00
2018-12-02T07:21:45.500Z,97432.00
2018-12-02T07:24:19.420Z,97425.00
2018-12-02T07:26:52.815Z,97433.00
2018-12-02T07:29:21.919Z,97430.00
2018-12-02T07:31:50.995Z,97437.00
2018-12-02T07:34:20.138Z,97440.00
2018-12-02T07:36:49.447Z,97435.00
2018-12-02T07:39:38.206Z,97445.00
2018-12-02T07:42:07.662Z,97442.00
2018-12-02T07:44:36.793Z,97451.00
2018-12-02T07:47:06.219Z,97446.00
2018-12-02T07:49:35.383Z,97435.00
2018-12-02T07:52:04.770Z,97431.00
2018-12-02T07:54:33.891Z,97436.00
2018-12-02T07:57:02.979Z,97429.00
2018-12-02T07:59:32.047Z,97428.00
2018-12-02T08:02:01.159Z,97429.00
2018-12-02T08:04:30.234Z,97422.00
2018-12-02T08:06:59.339Z,97417.00
2018-12-02T08:09:28.407Z,97411.00
2018-12-02T08:11:57.511Z,97404.00
2018-12-02T08:14:26.670Z,97407.00
2018-12-02T08:16:56.358Z,97405.00
2018-12-02T08:19:25.402Z,97392.00
2018-12-02T08:21:54.427Z,97393.00
2018-12-02T08:24:23.491Z,97387.00
2018-12-02T08:26:52.606Z,97383.00
2018-12-02T08:29:22.359Z,97389.00
2018-12-02T08:31:51.456Z,97393.00
2018-12-02T08:34:20.535Z,97393.00
2018-12-02T08:36:49.615Z,97384.00
2018-12-02T08:39:18.691Z,97388.00
2018-12-02T08:41:47.857Z,97393.00
2018-12-02T08:44:16.967Z,97383.00
2018-12-02T08:46:46.061Z,97384.00
2018-12-02T08:49:15.219Z,97386.00
2018-12-02T08:51:44.340Z,97384.00
2018-12-02T08:54:13.365Z,97388.00
2018-12-02T08:56:42.508Z,97388.00
2018-12-02T08:59:11.627Z,97390.00
2018-12-02T09:01:40.687Z,97403.00
2018-12-02T09:04:10.256Z,97400.00
2018-12-02T09:06:39.343Z,97405.00
2018-12-02T09:09:10.821Z,97415.00
2018-12-02T09:11:39.991Z,97422.00
2018-12-02T09:14:09.085Z,97413.00
2018-12-02T09:16:38.111Z,97426.00
2018-12-02T09:19:07.543Z,97417.00
2018-12-02T09:21:36.674Z,97425.00
2018-12-02T09:24:05.943Z,97438.00
2018-12-02T09:26:35.051Z,97435.00
2018-12-02T09:29:04.075Z,97436.00
2018-12-02T09:31:33.188Z,97429.00
2018-12-02T09:34:02.279Z,97431.00
2018-12-02T09:36:31.363Z,97436.00
2018-12-02T09:39:00.704Z,97436.00
2018-12-02T09:41:29.787Z,97427.00
2018-12-02T09:43:58.870Z,97431.00
2018-12-02T09:46:27.951Z,97437.00
2018-12-02T09:48:57.299Z,97434.00
2018-12-02T09:51:26.404Z,97441.00
2018-12-02T09:53:55.487Z,97421.00
2018-12-02T09:56:24.595Z,97421.00
2018-12-02T09:58:54.029Z,97415.00
2018-12-02T10:01:23.163Z,97424.00
2018-12-02T10:03:52.887Z,97418.00
2018-12-02T10:06:21.959Z,97420.00
2018-12-02T10:08:51.030Z,97409.00
2018-12-02T10:11:20.975Z,97421.00
2018-12-02T10:13:50.168Z,97406.00
2018-12-02T10:16:19.302Z,97416.00
2018-12-02T10:18:48.459Z,97420.00
2018-12-02T10:21:17.635Z,97419.00
2018-12-02T10:23:46.743Z,97416.00
2018-12-02T10:26:15.896Z,97417.00
2018-12-02T10:28:44.983Z,97415.00
2018-12-02T10:31:14.038Z,97403.00
2018-12-02T10:33:43.149Z,97401.00
2018-12-02T10:36:12.539Z,97399.00
2018-12-02T10:38:41.667Z,97409.00
2018-12-02T10:41:10.807Z,97408.00
2018-12-02T10:43:39.959Z,97414.00
2018-12-02T10:46:09.056Z,97421.00
2018-12-02T10:48:38.435Z,97412.00
2018-12-02T10:51:07.512Z,97410.00
2018-12-02T10:53:36.610Z,97419.00
2018-12-02T10:56:06.812Z,97424.00
2018-12-02T10:58:36.396Z,97407.00
2018-12-02T11:01:12.403Z,97417.00
2018-12-02T11:03:41.537Z,97412.00
2018-12-02T11:06:10.608Z,97401.00
2018-12-02T11:08:39.915Z,97416.00
2018-12-02T11:11:08.998Z,97410.00
2018-12-02T11:13:38.095Z,97411.00
2018-12-02T11:16:08.483Z,97425.00
2018-12-02T11:18:37.644Z,97402.00
2018-12-02T11:21:06.982Z,97417.00
2018-12-02T11:23:37.059Z,97416.00
2018-12-02T11:26:06.710Z,97401.00
2018-12-02T11:28:35.870Z,97405.00
2018-12-02T11:31:04.975Z,97402.00
2018-12-02T11:33:34.146Z,97395.00
2018-12-02T11:36:04.083Z,97396.00
2018-12-02T11:38:33.145Z,97396.00
2018-12-02T11:41:02.238Z,97391.00
2018-12-02T11:43:31.323Z,97389.00
2018-12-02T11:46:00.431Z,97390.00
2018-12-02T11:48:29.526Z,97391.00
2018-12-02T11:50:59.713Z,97379.00
2018-12-02T11:53:28.809Z,97390.00
2018-12-02T11:55:57.834Z,97390.00
2018-12-02T11:58:27.424Z,97387.00
2018-12-02T12:00:56.505Z,97389.00
2018-12-02T12:03:25.636Z,97393.00
2018-12-02T12:05:54.759Z,97377.00
2018-12-02T12:08:23.826Z,97381.00
2018-12-02T12:10:52.935Z,97392.00
2018-12-02T12:13:22.067Z,97393.00
2018-12-02T12:15:51.139Z,97393.00
2018-12-02T12:18:20.231Z,97400.00
2018-12-02T12:20:49.328Z,97394.00
2018-12-02T12:23:21.774Z,97414.00
2018-12-02T12:25:51.155Z,97399.00
2018-12-02T12:28:20.255Z,97400.00
2018-12-02T12:30:49.371Z,97396.00
2018-12-02T12:33:18.455Z,97406.00
2018-12-02T12:35:50.019Z,97396.00
2018-12-02T12:38:19.177Z,97400.00
2018-12-02T12:40:50.808Z,97393.00
2018-12-02T12:43:24.741Z,97396.00
2018-12-02T12:45:53.971Z,97395.00
2018-12-02T12:48:23.101Z,97407.00
2018-12-02T12:50:52.499Z,97401.00
2018-12-02T12:53:21.603Z,97415.00
2018-12-02T12:55:51.127Z,97408.00
2018-12-02T12:58:20.407Z,97411.00
2018-12-02T13:00:49.899Z,97417.00
2018-12-02T13:03:18.982Z,97425.00
2018-12-02T13:05:48.531Z,97420.00
2018-12-02T13:08:17.664Z,97416.00
2018-12-02T13:10:48.211Z,97418.00
2018-12-02T13:13:17.307Z,97420.00
2018-12-02T13:15:46.400Z,97414.00
2018-12-02T13:18:15.482Z,97423.00
2018-12-02T13:20:52.460Z,97419.00
2018-12-02T13:23:21.904Z,97419.00
2018-12-02T13:25:51.099Z,97424.00
2018-12-02T13:28:20.504Z,97414.00
2018-12-02T13:30:49.911Z,97422.00
2018-12-02T13:33:18.999Z,97410.00
2018-12-02T13:35:48.123Z,97420.00
2018-12-02T13:38:17.167Z,97433.00
2018-12-02T13:40:46.421Z,97421.00
2018-12-02T13:43:18.763Z,97412.00
2018-12-02T13:45:48.884Z,97416.00
2018-12-02T13:48:17.959Z,97417.00
2018-12-02T13:50:47.140Z,97424.00
2018-12-02T13:53:16.603Z,97427.00
2018-12-02T13:55:45.784Z,97420.00
2018-12-02T13:58:14.971Z,97437.00
2018-12-02T14:00:44.284Z,97438.00
2018-12-02T14:03:14.871Z,97435.00
2018-12-02T14:05:45.662Z,97442.00
2018-12-02T14:08:15.551Z,97441.00
2018-12-02T14:10:45.442Z,97440.00
2018-12-02T14:13:20.967Z,97445.00
2018-12-02T14:16:02.694Z,97462.00
2018-12-02T14:18:42.668Z,97457.00
2018-12-02T14:21:11.956Z,97458.00
2018-12-02T14:23:43.295Z,97458.00
2018-12-02T14:26:17.975Z,97459.00
2018-12-02T14:29:01.007Z,97457.00
2018-12-02T14:31:33.591Z,97459.00
2018-12-02T14:34:02.694Z,97456.00
2018-12-02T14:36:31.861Z,97454.00
2018-12-02T14:39:01.323Z,97450.00
2018-12-02T14:41:30.431Z,97454.00
2018-12-02T14:43:59.595Z,97452.00
2018-12-02T14:46:28.680Z,97453.00
2018-12-02T14:48:57.803Z,97470.00
2018-12-02T14:51:27.150Z,97470.00
2018-12-02T14:53:56.007Z,97464.00
2018-12-02T14:56:25.091Z,97463.00
2018-12-02T14:58:54.199Z,97476.00
2018-12-02T15:01:23.343Z,97477.00
2018-12-02T15:03:52.399Z,97488.00
2018-12-02T15:06:21.834Z,97485.00
2018-12-02T15:08:50.986Z,97491.00
2018-12-02T15:11:20.063Z,97482.00
2018-12-02T15:13:49.168Z,97492.00
2018-12-02T15:16:18.267Z,97487.00
2018-12-02T15:18:47.363Z,97483.00
2018-12-02T15:21:16.439Z,97497.00
2018-12-02T15:23:45.547Z,97497.00
2018-12-02T15:26:14.651Z,97495.00
2018-12-02T15:28:43.748Z,97487.00
2018-12-02T15:31:12.863Z,97487.00
2018-12-02T15:33:42.044Z,97494.00
2018-12-02T15:36:11.410Z,97511.00
2018-12-02T15:38:40.519Z,97502.00
2018-12-02T15:41:09.627Z,97508.00
2018-12-02T15:43:38.736Z,97508.00
2018-12-02T15:46:07.851Z,97511.00
2018-12-02T15:48:36.908Z,97511.00
2018-12-02T15:51:06.499Z,97502.00
2018-12-02T15:53:35.679Z,97513.00
2018-12-02T15:56:05.031Z,97511.00
2018-12-02T15:58:34.132Z,97512.00
2018-12-02T16:01:03.227Z,97506.00
2018-12-02T16:03:32.371Z,97501.00
2018-12-02T16:06:01.455Z,97509.00
2018-12-02T16:08:30.675Z,97507.00
2018-12-02T16:10:59.771Z,97513.00
2018-12-02T16:13:29.350Z,97512.00
2018-12-02T16:15:58.451Z,97520.00
2018-12-02T16:18:27.610Z,97516.00
2018-12-02T16:20:56.904Z,97518.00
2018-12-02T16:23:27.355Z,97518.00
2018-12-02T16:25:56.674Z,97519.00
2018-12-02T16:28:25.770Z,97522.00
2018-12-02T16:30:56.066Z,97520.00
2018-12-02T16:33:25.110Z,97519.00
2018-12-02T16:35:54.215Z,97519.00
2018-12-02T16:38:23.295Z,97524.00
2018-12-02T16:40:52.635Z,97507.00
2018-12-02T16:43:21.755Z,97526.00
2018-12-02T16:45:50.867Z,97525.00
2018-12-02T16:48:20.006Z,97527.00
2018-12-02T16:50:49.506Z,97531.00
2018-12-02T16:53:28.705Z,97531.00
2018-12-02T16:56:08.953Z,97531.00
2018-12-02T16:59:25.508Z,97536.00
2018-12-02T17:01:58.555Z,97535.00
2018-12-02T17:04:28.103Z,97528.00
2018-12-02T17:06:57.233Z,97526.00
2018-12-02T17:09:26.323Z,97527.00
2018-12-02T17:11:55.455Z,97533.00
2018-12-02T17:14:24.575Z,97535.00
2018-12-02T17:16:53.803Z,97532.00
2018-12-02T17:19:22.944Z,97536.00
2018-12-02T17:21:52.064Z,97531.00
2018-12-02T17:24:21.171Z,97527.00
2018-12-02T17:26:50.194Z,97522.00
2018-12-02T17:29:20.919Z,97523.00
2018-12-02T17:31:55.998Z,97533.00
2018-12-02T17:34:25.111Z,97536.00
2018-12-02T17:36:54.213Z,97531.00
2018-12-02T17:39:26.379Z,97535.00
2018-12-02T17:42:01.771Z,97530.00
2018-12-02T17:44:30.854Z,97507.00
2018-12-02T17:46:59.988Z,97499.00
2018-12-02T17:49:29.123Z,97515.00
2018-12-02T17:51:58.319Z,97510.00
2018-12-02T17:54:27.380Z,97521.00
2018-12-02T17:56:56.535Z,97526.00
2018-12-02T17:59:25.636Z,97527.00
2018-12-02T18:01:54.746Z,97532.00
2018-12-02T18:04:23.867Z,97529.00
2018-12-02T18:06:52.974Z,97529.00
2018-12-02T18:09:22.125Z,97537.00
2018-12-02T18:11:51.267Z,97529.00
2018-12-02T18:14:20.423Z,97528.00
2018-12-02T18:16:50.219Z,97528.00
2018-12-02T18:19:18.646Z,97532.00
2018-12-02T18:21:47.755Z,97538.00
2018-12-02T18:24:16.867Z,97547.00
2018-12-02T18:26:46.098Z,97548.00
2018-12-02T18:29:15.199Z,97549.00
2018-12-02T18:31:44.382Z,97544.00
2018-12-02T18:34:13.523Z,97540.00
2018-12-02T18:36:42.619Z,97547.00
2018-12-02T18:39:15.623Z,97543.00
2018-12-02T18:41:48.163Z,97545.00
2018-12-02T18:44:18.135Z,97548.00
2018-12-02T18:46:48.039Z,97544.00
2018-12-02T18:49:17.164Z,97551.00
2018-12-02T18:51:46.253Z,97545.00
2018-12-02T18:54:15.340Z,97536.00
2018-12-02T18:56:44.691Z,97531.00
2018-12-02T18:59:13.847Z,97533.00
2018-12-02T19:01:42.930Z,97531.00
2018-12-02T19:04:12.047Z,97535.00
2018-12-02T19:06:41.180Z,97539.00
2018-12-02T19:09:13.000Z,97535.00
2018-12-02T19:11:42.136Z,97538.00
2018-12-02T19:14:11.195Z,97533.00
2018-12-02T19:16:40.331Z,97539.00
2018-12-02T19:19:09.831Z,97525.00
2018-12-02T19:21:38.959Z,97535.00
2018-12-02T19:24:09.053Z,97535.00
2018-12-02T19:26:38.150Z,97533.00
2018-12-02T19:29:08.188Z,97539.00
2018-12-02T19:31:37.849Z,97537.00
2018-12-02T19:34:08.430Z,97529.00
2018-12-02T19:36:45.689Z,97536.00
2018-12-02T19:39:14.719Z,97536.00
2018-12-02T19:41:43.811Z,97538.00
2018-12-02T19:44:12.935Z,97536.00
2018-12-02T19:46:42.019Z,97539.00
2018-12-02T19:49:11.098Z,97543.00
2018-12-02T19:51:40.231Z,97545.00
2018-12-02T19:54:09.319Z,97544.00
2018-12-02T19:56:38.466Z,97538.00
2018-12-02T19:59:07.607Z,97541.00
2018-12-02T20:01:36.707Z,97543.00
2018-12-02T20:04:06.279Z,97539.00
2018-12-02T20:06:35.403Z,97535.00
2018-12-02T20:09:08.439Z,97533.00
2018-12-02T20:11:37.591Z,97536.00
2018-12-02T20:14:07.218Z,97535.00
2018-12-02T20:16:36.271Z,97525.00
2018-12-02T20:19:10.774Z,97536.00
2018-12-02T20:21:39.887Z,97531.00
2018-12-02T20:24:14.287Z,97529.00
2018-12-02T20:26:43.403Z,97533.00
2018-12-02T20:29:12.511Z,97535.00
2018-12-02T20:31:41.619Z,97534.00
2018-12-02T20:34:10.679Z,97527.00
2018-12-02T20:36:39.807Z,97524.00
2018-12-02T20:39:11.367Z,97516.00
2018-12-02T20:41:40.515Z,97518.00
2018-12-02T20:44:09.632Z,97522.00
2018-12-02T20:46:38.751Z,97513.00
2018-12-02T20:49:07.819Z,97517.00
2018-12-02T20:51:36.939Z,97520.00
2018-12-02T20:54:07.056Z,97522.00
2018-12-02T20:56:36.135Z,97522.00
2018-12-02T20:59:05.863Z,97523.00
2018-12-02T21:01:34.969Z,97512.00
2018-12-02T21:04:07.639Z,97509.00
2018-12-02T21:06:36.739Z,97511.00
2018-12-02T21:09:08.139Z,97517.00
2018-12-02T21:11:40.444Z,97514.00
2018-12-02T21:14:06.456Z,97506.00
2018-12-02T21:16:35.576Z,97501.00
2018-12-02T21:19:04.663Z,97508.00
2018-12-02T21:21:37.137Z,97503.00
2018-12-02T21:24:02.851Z,97501.00
2018-12-02T21:26:32.043Z,97509.00
2018-12-02T21:29:01.131Z,97515.00
2018-12-02T21:31:30.291Z,97503.00
2018-12-02T21:33:59.404Z,97504.00
2018-12-02T21:36:29.463Z,97504.00
2018-12-02T21:38:58.567Z,97499.00
2018-12-02T21:41:27.683Z,97507.00
2018-12-02T21:43:56.854Z,97510.00
2018-12-02T21:46:25.963Z,97494.00
2018-12-02T21:48:55.123Z,97505.00
2018-12-02T21:51:24.243Z,97499.00
2018-12-02T21:53:53.343Z,97486.00
2018-12-02T21:56:23.028Z,97485.00
2018-12-02T21:58:52.107Z,97485.00
2018-12-02T22:01:21.235Z,97482.00
2018-12-02T22:03:50.491Z,97485.00
2018-12-02T22:06:19.598Z,97473.00
2018-12-02T22:08:48.674Z,97484.00
2018-12-02T22:11:17.815Z,97483.00
2018-12-02T22:13:46.899Z,97487.00
2018-12-02T22:16:15.987Z,97486.00
2018-12-02T22:18:45.058Z,97485.00
2018-12-02T22:21:14.583Z,97479.00
2018-12-02T22:23:43.675Z,97476.00
2018-12-02T22:26:12.787Z,97485.00
2018-12-02T22:28:42.515Z,97481.00
2018-12-02T22:31:11.592Z,97483.00
2018-12-02T22:33:41.319Z,97489.00
2018-12-02T22:36:14.036Z,97482.00
2018-12-02T22:38:39.487Z,97500.00
2018-12-02T22:41:08.603Z,97484.00
2018-12-02T22:43:37.683Z,97475.00
2018-12-02T22:46:07.267Z,97487.00
2018-12-02T22:48:36.966Z,97487.00
2018-12-02T22:51:06.451Z,97493.00
2018-12-02T22:53:35.624Z,97478.00
2018-12-02T22:56:04.683Z,97478.00
2018-12-02T22:58:34.332Z,97473.00
2018-12-02T23:01:08.724Z,97461.00
2018-12-02T23:03:37.863Z,97459.00
2018-12-02T23:06:06.984Z,97469.00
2018-12-02T23:08:36.151Z,97453.00
2018-12-02T23:11:06.255Z,97457.00
2018-12-02T23:13:35.389Z,97461.00
2018-12-02T23:16:04.594Z,97452.00
2018-12-02T23:18:33.723Z,97455.00
2018-12-02T23:21:02.744Z,97453.00
2018-12-02T23:23:31.931Z,97459.00
2018-12-02T23:26:01.072Z,97447.00
2018-12-02T23:28:30.115Z,97449.00
2018-12-02T23:30:59.279Z,97440.00
2018-12-02T23:33:28.415Z,97444.00
2018-12-02T23:35:57.582Z,97440.00
2018-12-02T23:38:26.759Z,97448.00
2018-12-02T23:40:55.911Z,97445.00
2018-12-02T23:43:24.994Z,97449.00
2018-12-02T23:45:54.183Z,97437.00
2018-12-02T23:48:23.300Z,97437.00
2018-12-02T23:50:52.387Z,97429.00
2018-12-02T23:53:21.583Z,97442.00
2018-12-02T23:55:50.702Z,97442.00
2018-12-02T23:58:19.795Z,97446.00
